createdAt,value
2023-05-25T00:01:38.668Z,87.92
2023-05-25T00:04:10.491Z,88.33
2023-05-25T00:06:41.333Z,88.39
2023-05-25T00:09:10.408Z,88.60
2023-05-25T00:11:39.562Z,88.67
2023-05-25T00:14:08.819Z,88.26
2023-05-25T00:16:38.076Z,88.33
2023-05-25T00:19:10.774Z,88.43
2023-05-25T00:21:41.528Z,88.52
2023-05-25T00:24:10.663Z,88.55
2023-05-25T00:26:39.508Z,88.61
2023-05-25T00:29:08.623Z,89.13
2023-05-25T00:31:37.396Z,89.18
2023-05-25T00:34:06.605Z,88.84
2023-05-25T00:36:35.339Z,88.99
2023-05-25T00:39:07.169Z,89.17
2023-05-25T00:41:41.473Z,89.29
2023-05-25T00:44:10.576Z,89.50
2023-05-25T00:46:39.838Z,89.32
2023-05-25T00:49:09.237Z,89.88
2023-05-25T00:51:38.169Z,89.51
2023-05-25T00:54:10.090Z,89.69
2023-05-25T00:56:43.530Z,90.43
2023-05-25T00:59:18.637Z,90.78
2023-05-25T01:01:49.807Z,90.37
2023-05-25T01:04:22.588Z,90.81
2023-05-25T01:06:53.509Z,91.44
2023-05-25T01:09:26.015Z,91.65
2023-05-25T01:11:56.774Z,91.69
2023-05-25T01:14:27.262Z,91.27
2023-05-25T01:16:59.908Z,91.36
2023-05-25T01:19:28.939Z,91.77
2023-05-25T01:22:06.322Z,91.83
2023-05-25T01:24:41.932Z,92.29
2023-05-25T01:27:23.177Z,92.42
2023-05-25T01:29:53.603Z,92.09
2023-05-25T01:32:25.204Z,92.04
2023-05-25T01:34:59.007Z,92.41
2023-05-25T01:37:29.552Z,92.61
2023-05-25T01:39:58.995Z,92.70
2023-05-25T01:42:27.753Z,92.39
2023-05-25T01:44:57.151Z,92.73
2023-05-25T01:47:38.546Z,92.81
2023-05-25T01:50:16.836Z,92.68
2023-05-25T01:52:56.381Z,92.75
2023-05-25T01:55:30.056Z,92.46
2023-05-25T01:58:02.083Z,92.86
2023-05-25T02:00:33.542Z,92.96
2023-05-25T02:03:03.592Z,92.86
2023-05-25T02:05:33.281Z,92.94
2023-05-25T02:08:03.816Z,92.85
2023-05-25T02:10:34.465Z,92.99
2023-05-25T02:13:03.300Z,92.78
2023-05-25T02:15:34.704Z,92.63
2023-05-25T02:18:05.935Z,92.09
2023-05-25T02:20:35.161Z,92.40
2023-05-25T02:23:06.065Z,92.75
2023-05-25T02:25:35.141Z,92.76
2023-05-25T02:28:05.125Z,92.37
2023-05-25T02:30:34.534Z,92.42
2023-05-25T02:33:03.435Z,92.21
2023-05-25T02:35:32.550Z,92.04
2023-05-25T02:38:01.886Z,91.98
2023-05-25T02:40:32.433Z,92.64
2023-05-25T02:43:01.186Z,92.80
2023-05-25T02:45:30.338Z,92.98
2023-05-25T02:47:59.362Z,93.25
2023-05-25T02:50:29.229Z,93.02
2023-05-25T02:52:59.867Z,92.94
2023-05-25T02:55:28.890Z,93.02
2023-05-25T02:58:00.065Z,92.90
2023-05-25T03:00:46.916Z,93.13
2023-05-25T03:03:16.216Z,93.40
2023-05-25T03:05:46.177Z,93.53
2023-05-25T03:08:15.017Z,93.26
2023-05-25T03:10:44.489Z,93.25
2023-05-25T03:13:15.330Z,93.08
2023-05-25T03:15:44.926Z,93.25
2023-05-25T03:18:13.984Z,93.54
2023-05-25T03:20:44.122Z,93.59
2023-05-25T03:23:12.911Z,93.51
2023-05-25T03:25:42.276Z,92.99
2023-05-25T03:28:12.028Z,92.68
2023-05-25T03:30:45.854Z,93.29
2023-05-25T03:33:15.567Z,92.92
2023-05-25T03:35:48.922Z,92.74
2023-05-25T03:38:18.024Z,93.46
2023-05-25T03:40:47.576Z,93.48
2023-05-25T03:43:16.403Z,94.01
2023-05-25T03:45:49.506Z,93.99
2023-05-25T03:48:18.912Z,93.53
2023-05-25T03:50:49.078Z,93.36
2023-05-25T03:53:18.181Z,93.80
2023-05-25T03:55:51.975Z,93.75
2023-05-25T03:58:20.962Z,93.23
2023-05-25T04:00:51.852Z,93.05
2023-05-25T04:03:21.166Z,93.26
2023-05-25T04:05:50.383Z,93.42
2023-05-25T04:08:20.712Z,93.38
2023-05-25T04:10:50.021Z,92.94
2023-05-25T04:13:18.776Z,93.57
2023-05-25T04:15:47.788Z,93.40
2023-05-25T04:18:24.509Z,93.14
2023-05-25T04:20:55.538Z,92.88
2023-05-25T04:23:24.954Z,92.75
2023-05-25T04:25:55.495Z,91.77
2023-05-25T04:28:24.593Z,91.73
2023-05-25T04:31:00.635Z,91.72
2023-05-25T04:34:06.022Z,91.66
2023-05-25T04:36:43.278Z,92.09
2023-05-25T04:39:13.706Z,92.03
2023-05-25T04:41:48.538Z,91.51
2023-05-25T04:44:17.885Z,91.03
2023-05-25T04:46:50.602Z,90.88
2023-05-25T04:49:28.249Z,90.98
2023-05-25T04:51:57.330Z,90.53
2023-05-25T04:54:29.560Z,90.01
2023-05-25T04:57:01.795Z,90.14
2023-05-25T04:59:32.776Z,90.71
2023-05-25T05:02:02.547Z,90.79
2023-05-25T05:04:32.698Z,90.84
2023-05-25T05:07:01.789Z,90.81
2023-05-25T05:09:33.271Z,90.27
2023-05-25T05:12:03.823Z,90.28
2023-05-25T05:14:38.068Z,90.00
2023-05-25T05:17:07.518Z,90.16
2023-05-25T05:19:37.733Z,90.71
2023-05-25T05:22:09.908Z,90.55
2023-05-25T05:24:40.044Z,90.45
2023-05-25T05:27:09.233Z,89.78
2023-05-25T05:29:44.485Z,89.61
2023-05-25T05:32:13.523Z,89.79
2023-05-25T05:34:43.698Z,89.98
2023-05-25T05:37:25.490Z,90.33
2023-05-25T05:39:54.455Z,90.33
2023-05-25T05:42:23.520Z,90.38
2023-05-25T05:44:52.322Z,89.73
2023-05-25T05:47:21.419Z,89.61
2023-05-25T05:49:51.705Z,89.15
2023-05-25T05:52:20.877Z,88.78
2023-05-25T05:54:49.633Z,88.77
2023-05-25T05:57:18.864Z,88.14
2023-05-25T05:59:48.025Z,88.03
2023-05-25T06:02:17.197Z,88.15
2023-05-25T06:04:46.461Z,87.76
2023-05-25T06:07:16.901Z,87.42
2023-05-25T06:09:45.734Z,87.92
2023-05-25T06:12:16.223Z,87.73
2023-05-25T06:14:49.221Z,88.03
2023-05-25T06:17:18.341Z,88.00
2023-05-25T06:19:47.218Z,87.97
2023-05-25T06:22:19.373Z,87.88
2023-05-25T06:24:48.156Z,86.90
2023-05-25T06:27:17.598Z,87.11
2023-05-25T06:29:46.599Z,87.51
2023-05-25T06:32:15.863Z,87.52
2023-05-25T06:34:45.054Z,87.57
2023-05-25T06:37:14.955Z,86.90
2023-05-25T06:39:45.607Z,87.37
2023-05-25T06:42:14.883Z,87.34
2023-05-25T06:44:53.653Z,86.79
2023-05-25T06:47:22.927Z,86.73
2023-05-25T06:49:51.847Z,86.62
2023-05-25T06:52:20.593Z,86.56
2023-05-25T06:54:51.132Z,86.33
2023-05-25T06:57:19.857Z,85.93
2023-05-25T06:59:48.983Z,85.76
2023-05-25T07:02:18.950Z,86.14
2023-05-25T07:04:48.387Z,85.80
2023-05-25T07:07:17.371Z,85.57
2023-05-25T07:09:47.541Z,85.53
2023-05-25T07:12:18.284Z,84.86
2023-05-25T07:14:48.533Z,84.45
2023-05-25T07:17:17.532Z,84.78
2023-05-25T07:19:46.683Z,84.35
2023-05-25T07:22:17.058Z,84.06
2023-05-25T07:24:46.385Z,84.34
2023-05-25T07:27:17.490Z,83.89
2023-05-25T07:29:46.807Z,84.08
2023-05-25T07:32:18.523Z,83.40
2023-05-25T07:34:47.615Z,82.84
2023-05-25T07:37:16.428Z,83.00
2023-05-25T07:39:45.954Z,83.39
2023-05-25T07:42:20.751Z,83.14
2023-05-25T07:44:51.486Z,82.95
2023-05-25T07:47:20.263Z,83.61
2023-05-25T07:49:49.291Z,82.72
2023-05-25T07:52:19.029Z,81.87
2023-05-25T07:54:48.302Z,80.98
2023-05-25T07:57:17.233Z,81.66
2023-05-25T07:59:46.581Z,80.72
2023-05-25T08:02:16.913Z,80.69
2023-05-25T08:04:46.094Z,81.52
2023-05-25T08:07:14.953Z,80.98
2023-05-25T08:09:44.031Z,80.75
2023-05-25T08:12:34.359Z,80.08
2023-05-25T08:15:02.011Z,79.93
2023-05-25T08:17:33.978Z,79.87
2023-05-25T08:20:06.308Z,80.22
2023-05-25T08:22:36.143Z,78.83
2023-05-25T08:25:06.887Z,79.18
2023-05-25T08:27:36.380Z,78.51
2023-05-25T08:30:07.565Z,77.37
2023-05-25T08:32:37.832Z,77.25
2023-05-25T08:35:08.078Z,77.17
2023-05-25T08:37:36.891Z,77.32
2023-05-25T08:40:08.111Z,77.37
2023-05-25T08:42:37.098Z,76.77
2023-05-25T08:45:12.480Z,76.78
2023-05-25T08:47:50.008Z,77.24
2023-05-25T08:50:20.197Z,75.44
2023-05-25T08:52:54.494Z,75.64
2023-05-25T08:55:31.155Z,74.90
2023-05-25T08:58:07.989Z,75.36
2023-05-25T09:00:45.841Z,74.75
2023-05-25T09:03:19.120Z,74.08
2023-05-25T09:05:49.665Z,74.69
2023-05-25T09:08:18.901Z,74.87
2023-05-25T09:10:49.403Z,75.10
2023-05-25T09:13:22.489Z,75.40
2023-05-25T09:15:53.209Z,75.79
2023-05-25T09:18:23.376Z,75.24
2023-05-25T09:20:52.928Z,75.22
2023-05-25T09:23:22.896Z,75.48
2023-05-25T09:25:54.752Z,75.22
2023-05-25T09:28:27.300Z,74.31
2023-05-25T09:30:57.658Z,74.71
2023-05-25T09:33:28.275Z,74.83
2023-05-25T09:35:57.697Z,74.11
2023-05-25T09:38:27.252Z,73.31
2023-05-25T09:40:57.552Z,73.32
2023-05-25T09:43:39.724Z,73.73
2023-05-25T09:46:10.811Z,72.97
2023-05-25T09:48:42.061Z,72.73
2023-05-25T09:51:12.607Z,73.16
2023-05-25T09:53:41.934Z,71.00
2023-05-25T09:56:12.552Z,71.52
2023-05-25T09:58:42.282Z,70.56
2023-05-25T10:01:12.321Z,69.85
2023-05-25T10:03:59.685Z,68.55
2023-05-25T10:06:34.344Z,67.90
2023-05-25T10:09:05.395Z,67.50
2023-05-25T10:11:37.276Z,65.96
2023-05-25T10:14:08.814Z,65.61
2023-05-25T10:16:42.278Z,63.95
2023-05-25T10:19:22.200Z,61.75
2023-05-25T10:21:59.886Z,60.25
2023-05-25T10:24:39.502Z,57.77
2023-05-25T10:27:26.351Z,55.92
2023-05-25T10:29:58.457Z,55.48
2023-05-25T10:32:29.413Z,54.77
2023-05-25T10:35:03.029Z,54.62
2023-05-25T10:37:34.754Z,54.35
2023-05-25T10:40:04.896Z,54.38
2023-05-25T10:42:36.989Z,50.76
2023-05-25T10:45:09.787Z,51.56
2023-05-25T10:47:42.829Z,50.94
2023-05-25T10:50:24.454Z,50.90
2023-05-25T10:53:04.347Z,50.94
2023-05-25T10:55:44.889Z,51.47
2023-05-25T10:58:19.693Z,48.82
2023-05-25T11:01:00.375Z,48.20
2023-05-25T11:03:54.880Z,49.30
2023-05-25T11:06:59.056Z,49.92
2023-05-25T11:09:31.495Z,50.30
2023-05-25T11:12:04.624Z,49.51
2023-05-25T11:14:38.365Z,50.33
2023-05-25T11:17:10.669Z,50.46
2023-05-25T11:19:50.724Z,50.37
2023-05-25T11:22:23.637Z,50.64
2023-05-25T11:24:55.030Z,50.88
2023-05-25T11:27:24.808Z,49.95
2023-05-25T11:29:56.573Z,51.87
2023-05-25T11:32:26.381Z,50.63
2023-05-25T11:34:57.516Z,49.78
2023-05-25T11:37:31.611Z,50.11
2023-05-25T11:40:01.053Z,50.44
2023-05-25T11:42:31.883Z,50.77
2023-05-25T11:45:03.989Z,51.82
2023-05-25T11:47:35.098Z,51.99
2023-05-25T11:50:05.858Z,48.98
2023-05-25T11:52:36.098Z,48.52
2023-05-25T11:55:13.362Z,48.80
2023-05-25T11:57:42.799Z,48.25
2023-05-25T12:00:13.769Z,49.84
2023-05-25T12:02:43.734Z,49.20
2023-05-25T12:05:13.037Z,51.27
2023-05-25T12:07:47.189Z,50.80
2023-05-25T12:10:17.818Z,51.51
2023-05-25T12:12:48.910Z,50.86
2023-05-25T12:15:22.468Z,51.30
2023-05-25T12:17:53.715Z,51.64
2023-05-25T12:20:23.611Z,52.45
2023-05-25T12:22:54.010Z,52.02
2023-05-25T12:25:24.542Z,52.68
2023-05-25T12:28:11.549Z,52.55
2023-05-25T12:30:40.790Z,52.92
2023-05-25T12:33:10.131Z,53.43
2023-05-25T12:35:50.712Z,53.73
2023-05-25T12:38:22.598Z,54.06
2023-05-25T12:41:07.665Z,53.76
2023-05-25T12:43:40.586Z,54.13
2023-05-25T12:46:09.988Z,52.83
2023-05-25T12:48:38.951Z,53.55
2023-05-25T12:51:10.072Z,53.03
2023-05-25T12:53:51.171Z,54.96
2023-05-25T12:56:20.302Z,54.57
2023-05-25T12:58:49.135Z,54.27
2023-05-25T13:01:18.323Z,54.66
2023-05-25T13:03:47.183Z,53.00
2023-05-25T13:06:16.294Z,52.41
2023-05-25T13:08:45.499Z,53.35
2023-05-25T13:11:16.905Z,52.91
2023-05-25T13:13:46.174Z,53.11
2023-05-25T13:16:15.242Z,53.27
2023-05-25T13:18:44.037Z,52.06
2023-05-25T13:21:13.138Z,52.67
2023-05-25T13:23:41.858Z,53.09
2023-05-25T13:26:10.994Z,52.48
2023-05-25T13:28:41.175Z,50.97
2023-05-25T13:31:10.388Z,51.73
2023-05-25T13:33:39.298Z,53.01
2023-05-25T13:36:09.195Z,52.45
2023-05-25T13:38:39.082Z,52.04
2023-05-25T13:41:08.524Z,50.19
2023-05-25T13:43:38.049Z,49.88
2023-05-25T13:46:11.526Z,49.66
2023-05-25T13:48:47.443Z,50.96
2023-05-25T13:51:17.248Z,50.38
2023-05-25T13:53:46.456Z,51.09
2023-05-25T13:56:16.054Z,51.91
2023-05-25T13:58:44.817Z,51.10
2023-05-25T14:01:15.319Z,52.40
2023-05-25T14:03:44.292Z,51.62
2023-05-25T14:06:13.742Z,52.81
2023-05-25T14:08:42.569Z,52.21
2023-05-25T14:11:11.655Z,52.54
2023-05-25T14:13:40.440Z,52.65
2023-05-25T14:16:10.004Z,52.11
2023-05-25T14:18:40.130Z,52.45
2023-05-25T14:21:10.954Z,51.91
2023-05-25T14:23:39.898Z,51.99
2023-05-25T14:26:08.988Z,51.81
2023-05-25T14:28:37.756Z,51.62
2023-05-25T14:31:07.066Z,52.29
2023-05-25T14:33:42.852Z,51.55
2023-05-25T14:36:12.209Z,52.08
2023-05-25T14:38:40.977Z,51.08
2023-05-25T14:41:10.110Z,51.16
2023-05-25T14:43:38.917Z,50.27
2023-05-25T14:46:08.779Z,49.96
2023-05-25T14:48:39.138Z,49.69
2023-05-25T14:51:08.293Z,49.40
2023-05-25T14:53:37.014Z,50.21
2023-05-25T14:56:08.443Z,50.73
2023-05-25T14:58:38.524Z,50.39
2023-05-25T15:01:07.549Z,51.12
2023-05-25T15:03:36.522Z,51.40
2023-05-25T15:06:08.216Z,50.81
2023-05-25T15:08:37.798Z,50.54
2023-05-25T15:11:06.899Z,50.13
2023-05-25T15:13:35.997Z,49.24
2023-05-25T15:16:05.799Z,50.30
2023-05-25T15:18:34.552Z,50.61
2023-05-25T15:21:03.614Z,50.65
2023-05-25T15:23:33.781Z,51.12
2023-05-25T15:26:04.620Z,51.26
2023-05-25T15:28:33.599Z,51.32
2023-05-25T15:31:03.592Z,51.15
2023-05-25T15:33:51.589Z,51.17
2023-05-25T15:36:21.721Z,51.17
2023-05-25T15:38:53.278Z,50.58
2023-05-25T15:41:23.353Z,50.60
2023-05-25T15:43:57.976Z,49.84
2023-05-25T15:46:27.868Z,50.01
2023-05-25T15:48:56.931Z,49.98
2023-05-25T15:51:26.034Z,50.27
2023-05-25T15:53:56.273Z,50.27
2023-05-25T15:56:26.404Z,51.41
2023-05-25T15:58:55.238Z,50.41
2023-05-25T16:01:24.273Z,49.95
2023-05-25T16:03:53.087Z,49.58
2023-05-25T16:06:22.215Z,50.02
2023-05-25T16:08:50.962Z,49.68
2023-05-25T16:11:21.537Z,49.32
2023-05-25T16:13:50.417Z,49.49
2023-05-25T16:16:20.140Z,49.70
2023-05-25T16:18:49.174Z,50.15
2023-05-25T16:21:18.480Z,49.84
2023-05-25T16:23:47.240Z,50.59
2023-05-25T16:26:16.405Z,50.88
2023-05-25T16:28:46.495Z,50.47
2023-05-25T16:31:16.664Z,50.17
2023-05-25T16:33:46.349Z,49.70
2023-05-25T16:36:15.478Z,50.00
2023-05-25T16:38:44.265Z,50.14
2023-05-25T16:41:13.518Z,50.80
2023-05-25T16:43:42.230Z,51.10
2023-05-25T16:46:12.665Z,51.11
2023-05-25T16:48:41.558Z,50.35
2023-05-25T16:51:15.031Z,50.16
2023-05-25T16:53:45.281Z,50.40
2023-05-25T16:56:14.409Z,50.64
2023-05-25T16:58:43.168Z,50.52
2023-05-25T17:01:19.602Z,51.17
2023-05-25T17:03:48.607Z,51.45
2023-05-25T17:06:17.754Z,51.32
2023-05-25T17:08:46.519Z,51.89
2023-05-25T17:11:15.595Z,52.19
2023-05-25T17:13:44.362Z,52.18
2023-05-25T17:16:13.452Z,51.84
2023-05-25T17:18:43.664Z,51.79
2023-05-25T17:21:12.909Z,51.59
2023-05-25T17:23:41.693Z,51.84
2023-05-25T17:26:10.754Z,52.38
2023-05-25T17:28:39.615Z,52.14
2023-05-25T17:31:09.300Z,51.99
2023-05-25T17:33:39.056Z,52.18
2023-05-25T17:36:09.749Z,52.58
2023-05-25T17:38:38.500Z,52.54
2023-05-25T17:41:07.716Z,53.48
2023-05-25T17:43:36.543Z,53.04
2023-05-25T17:46:06.495Z,53.64
2023-05-25T17:48:35.471Z,53.98
2023-05-25T17:51:05.006Z,54.01
2023-05-25T17:53:35.127Z,53.85
2023-05-25T17:56:04.383Z,54.07
2023-05-25T17:58:33.315Z,54.57
2023-05-25T18:01:02.481Z,55.37
2023-05-25T18:03:31.515Z,57.34
2023-05-25T18:06:00.794Z,59.03
2023-05-25T18:08:29.583Z,59.50
2023-05-25T18:11:00.013Z,58.50
2023-05-25T18:13:28.804Z,59.89
2023-05-25T18:15:58.046Z,61.26
2023-05-25T18:18:26.855Z,60.95
2023-05-25T18:20:56.133Z,62.64
2023-05-25T18:23:26.378Z,62.48
2023-05-25T18:25:55.559Z,62.13
2023-05-25T18:28:25.854Z,63.18
2023-05-25T18:30:55.008Z,63.37
2023-05-25T18:33:23.853Z,63.51
2023-05-25T18:35:53.087Z,63.72
2023-05-25T18:38:22.000Z,64.32
2023-05-25T18:40:51.160Z,64.77
2023-05-25T18:43:19.951Z,65.34
2023-05-25T18:45:50.413Z,65.45
2023-05-25T18:48:19.288Z,65.99
2023-05-25T18:50:48.396Z,66.92
2023-05-25T18:53:17.278Z,67.18
2023-05-25T18:55:46.474Z,68.01
2023-05-25T18:58:15.602Z,68.01
2023-05-25T19:00:44.693Z,67.63
2023-05-25T19:03:15.156Z,68.55
2023-05-25T19:05:44.491Z,68.15
2023-05-25T19:08:13.394Z,67.85
2023-05-25T19:10:42.717Z,67.96
2023-05-25T19:13:11.613Z,68.11
2023-05-25T19:15:40.748Z,67.99
2023-05-25T19:18:09.623Z,67.89
2023-05-25T19:20:40.135Z,67.57
2023-05-25T19:23:09.236Z,67.31
2023-05-25T19:25:38.396Z,67.15
2023-05-25T19:28:07.339Z,67.81
2023-05-25T19:30:36.410Z,67.89
2023-05-25T19:33:05.399Z,67.87
2023-05-25T19:35:34.539Z,67.47
2023-05-25T19:38:04.713Z,67.85
2023-05-25T19:40:34.105Z,68.09
2023-05-25T19:43:03.052Z,68.93
2023-05-25T19:45:32.251Z,69.00
2023-05-25T19:48:01.735Z,69.35
2023-05-25T19:50:31.707Z,68.79
2023-05-25T19:53:01.163Z,69.17
2023-05-25T19:55:32.240Z,68.91
2023-05-25T19:58:01.024Z,69.40
2023-05-25T20:00:30.108Z,69.51
2023-05-25T20:02:58.896Z,68.34
2023-05-25T20:05:28.425Z,68.17
2023-05-25T20:07:57.154Z,67.79
2023-05-25T20:10:26.223Z,67.82
2023-05-25T20:12:59.253Z,67.12
2023-05-25T20:15:29.296Z,67.03
2023-05-25T20:17:58.002Z,66.71
2023-05-25T20:20:27.182Z,66.64
2023-05-25T20:22:56.550Z,67.04
2023-05-25T20:25:25.812Z,67.31
2023-05-25T20:27:54.514Z,67.46
2023-05-25T20:30:25.017Z,67.51
2023-05-25T20:32:53.989Z,67.36
2023-05-25T20:35:23.116Z,67.78
2023-05-25T20:37:52.097Z,67.74
2023-05-25T20:40:21.429Z,67.90
2023-05-25T20:42:50.293Z,67.60
2023-05-25T20:45:19.544Z,67.88
2023-05-25T20:47:59.201Z,68.17
2023-05-25T20:50:28.669Z,69.30
2023-05-25T20:52:58.139Z,70.38
2023-05-25T20:55:27.456Z,71.56
2023-05-25T20:57:57.081Z,71.75
2023-05-25T21:00:26.168Z,71.09
2023-05-25T21:02:56.379Z,70.79
2023-05-25T21:05:25.571Z,70.54
2023-05-25T21:07:54.618Z,71.52
2023-05-25T21:10:23.891Z,71.50
2023-05-25T21:12:52.704Z,71.93
2023-05-25T21:15:21.838Z,72.13
2023-05-25T21:17:50.837Z,72.79
2023-05-25T21:20:21.673Z,72.34
2023-05-25T21:22:50.487Z,72.42
2023-05-25T21:25:19.637Z,72.18
2023-05-25T21:27:48.409Z,73.19
2023-05-25T21:30:19.376Z,73.74
2023-05-25T21:32:48.597Z,73.29
2023-05-25T21:35:18.195Z,73.00
2023-05-25T21:37:48.331Z,73.02
2023-05-25T21:40:17.695Z,73.17
2023-05-25T21:42:47.079Z,73.43
2023-05-25T21:45:17.348Z,73.67
2023-05-25T21:47:46.227Z,73.52
2023-05-25T21:50:15.320Z,74.01
2023-05-25T21:52:44.278Z,74.44
2023-05-25T21:55:14.763Z,74.03
2023-05-25T21:57:43.958Z,73.82
2023-05-25T22:00:14.887Z,73.40
2023-05-25T22:02:44.745Z,73.15
2023-05-25T22:05:15.656Z,72.29
2023-05-25T22:07:44.455Z,72.48
2023-05-25T22:10:15.052Z,71.23
2023-05-25T22:12:44.429Z,71.24
2023-05-25T22:15:13.454Z,70.95
2023-05-25T22:17:42.212Z,70.85
2023-05-25T22:20:12.823Z,70.87
2023-05-25T22:22:42.367Z,71.44
2023-05-25T22:25:12.240Z,71.38
2023-05-25T22:27:42.355Z,71.77
2023-05-25T22:30:12.721Z,71.53
2023-05-25T22:32:41.534Z,71.49
2023-05-25T22:35:10.949Z,71.89
2023-05-25T22:37:39.694Z,72.11
2023-05-25T22:40:10.257Z,73.09
2023-05-25T22:42:39.051Z,74.04
2023-05-25T22:45:10.972Z,74.42
2023-05-25T22:47:39.764Z,74.40
2023-05-25T22:50:10.078Z,74.98
2023-05-25T22:52:38.877Z,74.94
2023-05-25T22:55:09.226Z,74.97
2023-05-25T22:57:38.145Z,74.70
2023-05-25T23:00:10.274Z,75.16
2023-05-25T23:02:39.062Z,75.56
2023-05-25T23:05:09.798Z,76.00
2023-05-25T23:07:38.608Z,76.52
2023-05-25T23:10:09.677Z,76.34
2023-05-25T23:12:38.410Z,76.92
2023-05-25T23:15:11.003Z,77.44
2023-05-25T23:17:39.862Z,77.27
2023-05-25T23:20:10.630Z,77.65
2023-05-25T23:22:39.459Z,77.38
2023-05-25T23:25:10.151Z,77.72
2023-05-25T23:27:39.081Z,77.50
2023-05-25T23:30:11.813Z,77.50
2023-05-25T23:32:40.594Z,77.50
2023-05-25T23:35:10.646Z,77.44
2023-05-25T23:37:39.343Z,76.80
2023-05-25T23:40:09.800Z,76.40
2023-05-25T23:42:45.331Z,75.51
2023-05-25T23:45:15.741Z,74.99
2023-05-25T23:47:44.569Z,74.43
2023-05-25T23:50:32.074Z,73.79
2023-05-25T23:53:00.849Z,73.28
2023-05-25T23:55:29.903Z,72.90
2023-05-25T23:57:58.636Z,72.79
